Time;durP1;ratioP1;P1;durP2;ratioP2;P2;SDS_P1;SDS_P2;PMS_P1;PMS_P2;Temp;Humidity;BMP_temperature;BMP_pressure;BME280_temperature;BME280_humidity;BME280_pressure;Samples;Min_cycle;Max_cycle;Signal;HPM_P1;HPM_P2
2021/09/12 00:02:10;;;;;;;7.03;5.30;;;;;;;15.11;100.00;96418.88;5092906;28;20207;-77
2021/09/12 00:04:37;;;;;;;5.90;5.07;;;;;;;15.07;100.00;96424.72;5092808;28;20203;-77
2021/09/12 00:07:04;;;;;;;5.50;4.90;;;;;;;15.05;100.00;96424.09;5092689;28;20228;-77
2021/09/12 00:09:32;;;;;;;6.70;4.90;;;;;;;15.09;100.00;96417.41;5092309;28;20211;-77
2021/09/12 00:11:59;;;;;;;6.30;5.30;;;;;;;15.07;100.00;96422.09;5092246;28;20216;-77
2021/09/12 00:14:26;;;;;;;5.87;4.97;;;;;;;14.92;100.00;96425.53;5092333;28;20192;-76
2021/09/12 00:16:55;;;;;;;6.27;4.90;;;;;;;14.94;100.00;96423.53;5092404;28;20197;-76
2021/09/12 00:19:24;;;;;;;10.23;5.70;;;;;;;14.72;100.00;96424.41;5092402;28;20200;-76
2021/09/12 00:21:52;;;;;;;6.57;5.53;;;;;;;14.61;100.00;96424.84;5091637;28;20254;-76
2021/09/12 00:24:19;;;;;;;6.70;6.10;;;;;;;14.64;100.00;96427.13;5091889;28;20327;-76
2021/09/12 00:26:46;;;;;;;6.10;5.50;;;;;;;14.65;100.00;96428.78;5092066;28;20192;-76
2021/09/12 00:29:14;;;;;;;7.37;5.20;;;;;;;14.70;100.00;96421.13;5092345;28;20218;-76
2021/09/12 00:31:41;;;;;;;7.07;5.80;;;;;;;14.67;100.00;96427.59;5092086;28;20580;-76
2021/09/12 00:34:10;;;;;;;7.53;5.00;;;;;;;14.74;100.00;96433.81;5092200;28;20200;-76
2021/09/12 00:36:37;;;;;;;5.57;5.17;;;;;;;14.88;100.00;96434.00;5092422;28;20222;-76
2021/09/12 00:39:05;;;;;;;7.37;5.43;;;;;;;14.81;100.00;96425.97;5091645;28;20192;-76
2021/09/12 00:41:36;;;;;;;5.70;5.10;;;;;;;14.62;100.00;96423.88;5092334;28;20611;-76
2021/09/12 00:44:03;;;;;;;6.17;5.57;;;;;;;14.52;100.00;96425.94;5091881;28;20192;-76
2021/09/12 00:46:31;;;;;;;8.23;6.97;;;;;;;14.66;100.00;96422.50;5092044;28;20196;-76
2021/09/12 00:48:58;;;;;;;7.20;5.13;;;;;;;14.60;100.00;96426.69;5092147;28;20201;-76
2021/09/12 00:51:27;;;;;;;6.27;5.67;;;;;;;14.37;100.00;96424.03;5092256;28;20200;-76
2021/09/12 00:53:56;;;;;;;7.83;5.40;;;;;;;14.56;100.00;96427.22;5091632;28;20692;-76
2021/09/12 00:56:24;;;;;;;4.67;4.20;;;;;;;14.62;100.00;96429.16;5091862;28;20200;-76
2021/09/12 00:58:52;;;;;;;6.50;5.43;;;;;;;14.56;100.00;96425.41;5091510;28;20202;-76
2021/09/12 01:01:19;;;;;;;8.33;5.40;;;;;;;14.43;100.00;96423.31;5091724;28;20203;-76
2021/09/12 01:03:46;;;;;;;7.40;5.77;;;;;;;14.43;100.00;96427.78;5091747;28;20192;-77
2021/09/12 01:06:14;;;;;;;5.30;4.90;;;;;;;14.64;100.00;96421.84;5092016;28;20232;-76
2021/09/12 01:08:42;;;;;;;6.13;5.43;;;;;;;14.39;100.00;96423.88;5091989;28;20196;-76
2021/09/12 01:11:10;;;;;;;10.23;5.10;;;;;;;14.34;100.00;96420.91;5091380;28;20199;-76
2021/09/12 01:13:41;;;;;;;5.63;5.03;;;;;;;14.45;100.00;96418.69;5091583;28;20216;-76
2021/09/12 01:16:13;;;;;;;5.00;4.60;;;;;;;14.19;100.00;96420.88;5091596;28;20207;-76
2021/09/12 01:18:41;;;;;;;5.70;4.73;;;;;;;14.35;100.00;96417.31;5091603;28;20188;-76
2021/09/12 01:21:10;;;;;;;11.03;5.87;;;;;;;14.49;100.00;96412.03;5091629;28;20200;-76
2021/09/12 01:23:38;;;;;;;7.53;5.70;;;;;;;14.26;100.00;96419.19;5091627;28;20196;-77
2021/09/12 01:26:06;;;;;;;5.70;5.17;;;;;;;14.31;100.00;96416.03;5091333;28;20236;-77
2021/09/12 01:28:34;;;;;;;5.70;5.10;;;;;;;14.19;100.00;96412.94;5091525;28;20200;-77
2021/09/12 01:31:01;;;;;;;6.60;5.83;;;;;;;14.02;100.00;96410.44;5091356;28;20552;-76
2021/09/12 01:33:28;;;;;;;6.00;5.40;;;;;;;14.19;100.00;96403.19;5095408;28;20226;-76
2021/09/12 01:35:56;;;;;;;13.97;5.47;;;;;;;14.25;100.00;96404.31;5095402;28;20688;-76
2021/09/12 01:38:23;;;;;;;6.33;5.70;;;;;;;14.23;100.00;96409.78;5095454;28;20193;-76
2021/09/12 01:40:50;;;;;;;9.07;5.50;;;;;;;14.33;100.00;96412.16;5095238;28;20283;-76
2021/09/12 01:43:22;;;;;;;6.23;5.63;;;;;;;14.36;100.00;96416.28;5095452;28;20271;-77
2021/09/12 01:45:49;;;;;;;7.50;5.37;;;;;;;14.20;100.00;96418.09;5095271;28;20181;-77
2021/09/12 01:48:16;;;;;;;8.07;5.30;;;;;;;14.20;100.00;96415.44;5095330;28;20287;-77
2021/09/12 01:50:43;;;;;;;5.73;5.23;;;;;;;14.11;100.00;96420.97;5094617;28;20211;-77
2021/09/12 01:53:11;;;;;;;6.67;5.07;;;;;;;14.11;100.00;96415.66;5094928;28;20230;-76
2021/09/12 01:55:38;;;;;;;6.80;5.50;;;;;;;14.16;100.00;96413.31;5094741;28;20203;-76
2021/09/12 01:58:05;;;;;;;7.57;5.93;;;;;;;14.24;100.00;96411.44;5095243;28;20295;-76
2021/09/12 02:00:34;;;;;;;6.00;5.13;;;;;;;14.28;100.00;96419.84;5094560;28;20192;-76
2021/09/12 02:03:01;;;;;;;9.77;5.70;;;;;;;14.38;100.00;96412.47;5094899;28;20189;-76
2021/09/12 02:05:28;;;;;;;8.73;5.17;;;;;;;14.28;100.00;96419.84;5094872;28;20562;-76
2021/09/12 02:07:56;;;;;;;7.67;5.67;;;;;;;14.20;100.00;96415.44;5094963;28;20196;-76
2021/09/12 02:10:26;;;;;;;6.83;5.47;;;;;;;14.36;100.00;96414.47;5094608;28;20227;-76
2021/09/12 02:12:54;;;;;;;8.70;4.80;;;;;;;14.27;100.00;96411.09;5094319;28;20244;-76
2021/09/12 02:15:21;;;;;;;5.60;5.00;;;;;;;14.12;100.00;96409.38;5094503;28;20684;-76
2021/09/12 02:17:50;;;;;;;8.27;5.60;;;;;;;14.23;100.00;96414.25;5094780;28;20203;-76
2021/09/12 02:20:17;;;;;;;8.87;5.90;;;;;;;14.10;100.00;96406.06;5094442;28;20200;-76
2021/09/12 02:22:44;;;;;;;10.13;5.60;;;;;;;14.21;100.00;96413.63;5094271;28;20204;-76
2021/09/12 02:25:12;;;;;;;6.17;5.57;;;;;;;14.09;100.00;96407.09;5094042;28;20232;-76
2021/09/12 02:27:39;;;;;;;6.40;4.53;;;;;;;14.11;100.00;96407.75;5094240;28;20192;-76
2021/09/12 02:30:08;;;;;;;6.77;5.23;;;;;;;14.01;100.00;96406.16;5094177;28;20200;-76
2021/09/12 02:32:35;;;;;;;5.23;4.80;;;;;;;14.07;100.00;96402.00;5094221;28;20593;-76
2021/09/12 02:35:04;;;;;;;7.70;5.53;;;;;;;14.01;100.00;96405.34;5094240;28;20222;-76
2021/09/12 02:37:32;;;;;;;6.70;5.57;;;;;;;13.98;100.00;96403.03;5094494;28;20192;-76
2021/09/12 02:39:59;;;;;;;6.23;5.07;;;;;;;14.01;100.00;96402.69;5093642;28;20227;-76
2021/09/12 02:42:26;;;;;;;5.90;5.30;;;;;;;13.87;100.00;96404.28;5094024;28;20577;-76
2021/09/12 02:44:54;;;;;;;7.53;5.33;;;;;;;13.93;100.00;96395.66;5093467;28;20222;-76
2021/09/12 02:47:21;;;;;;;6.13;5.07;;;;;;;13.93;100.00;96403.56;5093985;28;20199;-76
2021/09/12 02:49:48;;;;;;;7.47;5.43;;;;;;;13.86;100.00;96397.34;5093744;28;20192;-76
2021/09/12 02:52:17;;;;;;;6.73;6.13;;;;;;;13.87;100.00;96400.81;5094002;28;20193;-76
2021/09/12 02:54:44;;;;;;;5.83;5.33;;;;;;;13.71;100.00;96404.38;5093600;28;20726;-76
2021/09/12 02:57:11;;;;;;;5.63;4.97;;;;;;;13.77;100.00;96398.41;5094325;28;20200;-76
2021/09/12 02:59:38;;;;;;;6.07;5.17;;;;;;;13.69;100.00;96395.81;5093537;28;20577;-76
2021/09/12 03:02:06;;;;;;;6.33;5.50;;;;;;;13.69;100.00;96399.28;5093577;28;20695;-76
2021/09/12 03:04:33;;;;;;;9.30;5.40;;;;;;;13.69;100.00;96407.19;5093887;28;20214;-76
2021/09/12 03:07:00;;;;;;;7.57;5.50;;;;;;;13.66;100.00;96407.53;5093660;28;20199;-76
2021/09/12 03:09:28;;;;;;;7.93;5.50;;;;;;;13.74;100.00;96409.31;5093643;28;20219;-76
2021/09/12 03:11:56;;;;;;;7.80;6.17;;;;;;;13.64;100.00;96409.53;5093439;28;20668;-76
2021/09/12 03:14:23;;;;;;;6.27;5.27;;;;;;;13.57;100.00;96409.41;5093220;28;20242;-76
2021/09/12 03:16:51;;;;;;;5.87;5.27;;;;;;;13.63;100.00;96412.34;5093403;28;20196;-76
2021/09/12 03:19:18;;;;;;;7.67;5.50;;;;;;;13.71;100.00;96404.38;5093134;28;20576;-76
2021/09/12 03:21:45;;;;;;;6.13;5.53;;;;;;;13.64;100.00;96416.63;5093318;28;20208;-76
2021/09/12 03:24:13;;;;;;;8.37;5.80;;;;;;;13.86;100.00;96410.56;5092881;28;20310;-76
2021/09/12 03:26:41;;;;;;;10.37;5.33;;;;;;;14.04;100.00;96413.72;5092974;28;20189;-76
2021/09/12 03:29:08;;;;;;;7.03;5.87;;;;;;;13.96;100.00;96416.44;5093143;28;20211;-76
2021/09/12 03:31:36;;;;;;;7.43;5.30;;;;;;;13.90;100.00;96414.50;5093193;28;20199;-76
2021/09/12 03:34:03;;;;;;;7.07;5.57;;;;;;;13.82;100.00;96411.91;5092563;28;20593;-76
2021/09/12 03:36:30;;;;;;;9.90;4.97;;;;;;;13.90;100.00;96409.22;5092984;28;20192;-76
2021/09/12 03:38:57;;;;;;;6.70;6.00;;;;;;;13.84;100.00;96414.38;5092684;28;20196;-76
2021/09/12 03:41:25;;;;;;;12.53;5.93;;;;;;;13.87;100.00;96414.84;5093285;28;20302;-76
2021/09/12 03:43:53;;;;;;;6.17;5.57;;;;;;;13.87;100.00;96419.31;5092656;28;20193;-76
2021/09/12 03:46:20;;;;;;;9.67;5.77;;;;;;;13.75;100.00;96417.06;5092737;28;20196;-76
2021/09/12 03:48:48;;;;;;;6.53;5.17;;;;;;;13.99;100.00;96426.66;5092902;28;20191;-76
2021/09/12 03:51:15;;;;;;;7.80;5.20;;;;;;;14.40;100.00;96434.25;5093004;28;20202;-77
2021/09/12 03:53:42;;;;;;;13.30;6.37;;;;;;;14.24;100.00;96422.00;5092459;28;20605;-77
2021/09/12 03:56:09;;;;;;;8.17;6.40;;;;;;;14.03;100.00;96425.31;5092500;28;20200;-76
2021/09/12 03:58:36;;;;;;;6.33;5.73;;;;;;;14.23;100.00;96425.63;5092511;28;20595;-76
2021/09/12 04:01:05;;;;;;;8.07;5.50;;;;;;;14.29;100.00;96426.75;5092682;28;20197;-76
2021/09/12 04:03:32;;;;;;;7.87;5.97;;;;;;;14.33;100.00;96430.69;5092344;28;20196;-76
2021/09/12 04:05:59;;;;;;;6.00;5.37;;;;;;;14.35;100.00;96425.22;5092364;28;20712;-76
2021/09/12 04:08:27;;;;;;;20.93;14.90;;;;;;;14.44;100.00;96424.16;5092397;28;20211;-76
2021/09/12 04:10:54;;;;;;;26.00;19.07;;;;;;;14.14;100.00;96421.44;5092401;28;20218;-76
2021/09/12 04:13:21;;;;;;;37.40;28.23;;;;;;;14.16;100.00;96415.94;5092263;28;20219;-76
2021/09/12 04:15:48;;;;;;;302.10;233.77;;;;;;;14.08;100.00;96422.13;5092207;28;20287;-76
2021/09/12 04:18:17;;;;;;;176.93;140.97;;;;;;;14.05;100.00;96417.19;5092435;28;20285;-76
2021/09/12 04:20:44;;;;;;;31.40;23.97;;;;;;;14.00;100.00;96420.38;5092220;28;20192;-76
2021/09/12 04:23:11;;;;;;;34.27;28.00;;;;;;;13.96;100.00;96418.25;5091865;28;20198;-76
2021/09/12 04:25:38;;;;;;;13.57;12.17;;;;;;;13.90;100.00;96424.25;5091755;28;20715;-76
2021/09/12 04:28:06;;;;;;;14.83;9.83;;;;;;;13.87;100.00;96420.13;5092437;28;20386;-76
2021/09/12 04:30:33;;;;;;;13.13;11.73;;;;;;;13.97;100.00;96423.34;5091911;28;20292;-76
2021/09/12 04:33:00;;;;;;;20.13;16.40;;;;;;;13.92;100.00;96424.88;5091927;28;20669;-76
2021/09/12 04:35:29;;;;;;;14.53;12.33;;;;;;;13.86;100.00;96418.50;5091901;28;20196;-76
2021/09/12 04:37:56;;;;;;;7.70;6.47;;;;;;;13.97;100.00;96428.66;5091984;28;20204;-76
2021/09/12 04:40:23;;;;;;;6.33;5.43;;;;;;;14.40;100.00;96439.53;5091835;28;20279;-76
2021/09/12 04:42:50;;;;;;;8.57;5.83;;;;;;;14.74;100.00;96444.41;5092053;28;20200;-76
2021/09/12 04:45:18;;;;;;;8.43;5.03;;;;;;;15.12;100.00;96438.22;5091671;28;20202;-76
2021/09/12 04:47:45;;;;;;;9.80;5.73;;;;;;;15.34;100.00;96439.13;5092270;28;20250;-76
2021/09/12 04:50:12;;;;;;;7.43;5.77;;;;;;;15.38;100.00;96448.38;5091494;28;20196;-77
2021/09/12 04:52:43;;;;;;;7.90;4.83;;;;;;;15.40;100.00;96433.91;5091902;28;20196;-76
2021/09/12 04:55:11;;;;;;;7.70;5.80;;;;;;;15.43;100.00;96441.50;5092037;28;20209;-77
2021/09/12 04:57:38;;;;;;;9.77;5.90;;;;;;;15.40;100.00;96435.75;5091972;28;20577;-75
2021/09/12 05:00:07;;;;;;;8.33;5.60;;;;;;;15.43;100.00;96433.53;5091989;28;20556;-75
2021/09/12 05:02:34;;;;;;;6.60;5.23;;;;;;;15.50;100.00;96432.81;5092117;28;20574;-74
2021/09/12 05:05:01;;;;;;;7.60;5.97;;;;;;;15.55;100.00;96436.56;5091686;28;20660;-75
2021/09/12 05:07:29;;;;;;;7.50;5.93;;;;;;;15.61;100.00;96437.63;5094293;28;20200;-75
2021/09/12 05:09:57;;;;;;;6.20;5.60;;;;;;;15.64;100.00;96434.59;5095642;28;20223;-75
2021/09/12 05:12:24;;;;;;;7.17;5.73;;;;;;;15.74;100.00;96445.75;5095889;28;20687;-75
2021/09/12 05:14:52;;;;;;;7.83;5.70;;;;;;;15.78;100.00;96438.25;5095786;28;20246;-75
2021/09/12 05:17:19;;;;;;;12.07;7.23;;;;;;;15.84;100.00;96441.00;5091957;28;20203;-75
2021/09/12 05:19:47;;;;;;;6.60;6.00;;;;;;;15.89;100.00;96443.88;5095339;28;20206;-75
2021/09/12 05:22:14;;;;;;;10.90;5.90;;;;;;;15.96;100.00;96449.25;5095715;28;20269;-75
2021/09/12 05:24:42;;;;;;;8.00;6.63;;;;;;;15.96;100.00;96445.78;5094883;28;20224;-75
2021/09/12 05:27:10;;;;;;;6.37;5.77;;;;;;;15.96;100.00;96451.09;5095342;28;20193;-75
2021/09/12 05:29:37;;;;;;;6.63;5.10;;;;;;;16.09;100.00;96453.88;5095311;28;20197;-75
2021/09/12 05:32:05;;;;;;;6.80;5.60;;;;;;;16.11;100.00;96450.06;5095466;28;20279;-75
2021/09/12 05:34:33;;;;;;;5.47;4.97;;;;;;;16.14;100.00;96456.78;5095191;28;20586;-75
2021/09/12 05:37:00;;;;;;;5.83;5.27;;;;;;;16.25;100.00;96453.66;5094866;28;20203;-75
2021/09/12 05:39:27;;;;;;;7.37;5.73;;;;;;;16.33;100.00;96450.84;5094861;28;20197;-75
2021/09/12 05:41:54;;;;;;;8.70;5.63;;;;;;;16.40;100.00;96437.66;5095061;28;20555;-74
2021/09/12 05:44:23;;;;;;;10.70;5.87;;;;;;;16.48;100.00;96449.97;5094907;28;20192;-74
2021/09/12 05:46:51;;;;;;;5.80;5.30;;;;;;;16.58;100.00;96447.81;5095054;28;20197;-74
2021/09/12 05:49:19;;;;;;;8.13;6.23;;;;;;;16.72;100.00;96449.56;5094348;28;20202;-74
2021/09/12 05:51:47;;;;;;;6.37;5.40;;;;;;;16.77;100.00;96447.19;5094749;28;20703;-74
2021/09/12 05:54:14;;;;;;;11.60;6.30;;;;;;;16.80;100.00;96452.13;5094301;28;20232;-75
2021/09/12 05:56:41;;;;;;;9.10;5.90;;;;;;;16.90;100.00;96441.13;5094354;28;20201;-74
2021/09/12 05:59:09;;;;;;;7.30;5.50;;;;;;;17.05;100.00;96443.69;5094404;28;20220;-75
2021/09/12 06:01:38;;;;;;;8.30;6.17;;;;;;;17.12;100.00;96447.22;5094557;28;20202;-75
2021/09/12 06:04:05;;;;;;;7.23;6.13;;;;;;;17.22;100.00;96445.03;5094584;28;20578;-80
2021/09/12 06:06:33;;;;;;;6.70;5.80;;;;;;;17.33;100.00;96446.31;5094545;28;20194;-79
2021/09/12 06:09:00;;;;;;;7.30;6.60;;;;;;;17.37;100.00;96449.41;5094111;28;20198;-80
2021/09/12 06:11:27;;;;;;;6.90;6.20;;;;;;;17.47;100.00;96452.50;5087487;28;20203;-80
2021/09/12 06:13:54;;;;;;;6.23;5.50;;;;;;;17.57;100.00;96443.16;5078821;28;20229;-80
2021/09/12 06:16:22;;;;;;;7.70;5.20;;;;;;;17.63;100.00;96444.22;5094344;28;20208;-80
2021/09/12 06:18:50;;;;;;;8.50;5.77;;;;;;;17.76;100.00;96444.25;5092689;28;20236;-79
2021/09/12 06:21:18;;;;;;;7.67;5.90;;;;;;;17.87;100.00;96442.06;5094546;28;20284;-80
2021/09/12 06:23:45;;;;;;;6.70;5.47;;;;;;;18.03;100.00;96452.34;5084955;28;20687;-79
2021/09/12 06:26:12;;;;;;;7.83;5.33;;;;;;;18.16;100.00;96446.22;5089345;28;20719;-80
2021/09/12 06:28:39;;;;;;;6.43;5.13;;;;;;;18.19;100.00;96446.66;5094268;28;20200;-80
2021/09/12 06:31:06;;;;;;;5.73;5.20;;;;;;;18.34;100.00;96456.28;5094331;28;20195;-80
2021/09/12 06:33:34;;;;;;;5.53;5.00;;;;;;;18.49;100.00;96443.59;5093809;28;20200;-80
2021/09/12 06:36:02;;;;;;;5.20;4.70;;;;;;;18.59;100.00;96449.34;5094212;28;20199;-79
2021/09/12 06:38:30;;;;;;;8.60;5.37;;;;;;;18.72;100.00;96448.56;5093742;28;20196;-81
2021/09/12 06:40:57;;;;;;;7.40;5.23;;;;;;;18.90;100.00;96453.25;5093487;28;20200;-81
2021/09/12 06:43:24;;;;;;;5.90;5.30;;;;;;;19.04;100.00;96454.88;5093603;28;20200;-80
2021/09/12 06:45:51;;;;;;;6.37;5.70;;;;;;;19.09;100.00;96456.94;5093749;28;20207;-81
2021/09/12 06:48:19;;;;;;;6.97;5.50;;;;;;;19.22;100.00;96454.22;5093719;28;20206;-81
2021/09/12 06:50:46;;;;;;;8.57;5.73;;;;;;;19.45;100.00;96457.25;5093617;28;20207;-81
2021/09/12 06:53:14;;;;;;;7.00;5.80;;;;;;;19.54;100.00;96452.53;5093313;28;20196;-81
2021/09/12 06:55:42;;;;;;;8.13;4.83;;;;;;;19.73;100.00;96458.81;5093897;28;20228;-82
2021/09/12 06:58:09;;;;;;;6.00;5.40;;;;;;;19.87;100.00;96455.06;5093516;28;20203;-81
2021/09/12 07:00:36;;;;;;;7.70;5.50;;;;;;;20.09;100.00;96460.94;5093500;28;20207;-81
2021/09/12 07:03:04;;;;;;;10.07;5.13;;;;;;;20.19;100.00;96466.63;5093074;28;20196;-81
2021/09/12 07:05:31;;;;;;;7.87;5.47;;;;;;;20.35;100.00;96461.78;5093644;28;20260;-81
2021/09/12 07:07:58;;;;;;;11.77;5.80;;;;;;;20.59;100.00;96462.88;5093128;28;20294;-81
2021/09/12 07:10:27;;;;;;;5.80;4.90;;;;;;;20.71;100.00;96471.81;5092969;28;20579;-81
2021/09/12 07:12:54;;;;;;;8.70;5.17;;;;;;;20.82;100.00;96471.13;5093150;28;20203;-81
2021/09/12 07:15:21;;;;;;;6.87;4.90;;;;;;;21.17;100.00;96467.94;5093343;28;20220;-81
2021/09/12 07:17:49;;;;;;;7.93;5.80;;;;;;;21.41;100.00;96468.16;5093287;28;20196;-80
2021/09/12 07:20:16;;;;;;;6.77;5.03;;;;;;;21.62;100.00;96466.91;5093198;28;20552;-80
2021/09/12 07:22:46;;;;;;;9.20;5.37;;;;;;;21.87;100.00;96470.28;5092907;28;20303;-80
2021/09/12 07:25:13;;;;;;;10.47;5.27;;;;;;;21.89;100.00;96467.38;5092702;28;20771;-78
2021/09/12 07:27:42;;;;;;;10.90;5.60;;;;;;;21.95;100.00;96466.47;5092720;28;20574;-78
2021/09/12 07:30:11;;;;;;;6.17;5.23;;;;;;;22.19;100.00;96464.75;5092792;28;20195;-79
2021/09/12 07:32:39;;;;;;;6.33;5.30;;;;;;;22.63;100.00;96471.53;5092798;28;20200;-79
2021/09/12 07:35:07;;;;;;;5.93;5.40;;;;;;;22.84;100.00;96480.88;5092938;28;20220;-78
2021/09/12 07:37:35;;;;;;;7.60;5.40;;;;;;;22.88;100.00;96476.69;5092618;28;20200;-78
2021/09/12 07:40:02;;;;;;;8.93;6.23;;;;;;;23.04;100.00;96469.06;5092764;28;20208;-79
2021/09/12 07:42:29;;;;;;;8.87;6.47;;;;;;;23.04;100.00;96466.38;5092692;28;20256;-78
2021/09/12 07:44:58;;;;;;;6.20;5.23;;;;;;;23.23;100.00;96467.88;5092770;28;20196;-78
2021/09/12 07:47:25;;;;;;;6.10;5.50;;;;;;;23.48;100.00;96463.09;5092381;28;20200;-79
2021/09/12 07:49:52;;;;;;;8.50;6.23;;;;;;;23.69;100.00;96464.38;5092536;28;20196;-79
2021/09/12 07:52:19;;;;;;;7.73;5.60;;;;;;;23.78;100.00;96458.63;5092567;28;20196;-79
2021/09/12 07:54:46;;;;;;;8.40;7.20;;;;;;;;;;5092254;28;20309;-79
2021/09/12 07:57:13;;;;;;;7.47;6.17;;;;;;;23.85;100.00;96453.94;5092917;28;20223;-79
2021/09/12 07:59:40;;;;;;;7.03;6.33;;;;;;;24.06;100.00;96466.72;5092320;28;20693;-79
2021/09/12 08:02:09;;;;;;;5.93;5.33;;;;;;;24.43;100.00;96461.78;5092620;28;20204;-79
2021/09/12 08:04:36;;;;;;;12.57;5.67;;;;;;;24.21;100.00;96458.13;5092416;28;20569;-79
2021/09/12 08:07:03;;;;;;;6.47;5.87;;;;;;;24.21;100.00;96460.81;5092013;28;20673;-79
2021/09/12 08:09:31;;;;;;;9.87;6.13;;;;;;;24.65;100.00;96453.84;5091893;28;20197;-79
2021/09/12 08:11:58;;;;;;;8.37;5.23;;;;;;;24.66;100.00;96460.88;5092663;28;20689;-79
2021/09/12 08:14:25;;;;;;;7.57;5.87;;;;;;;24.65;100.00;96461.09;5092299;28;20220;-79
2021/09/12 08:16:53;;;;;;;5.97;5.40;;;;;;;24.94;100.00;96458.31;5092351;28;20200;-80
2021/09/12 08:19:22;;;;;;;7.83;4.97;;;;;;;24.96;100.00;96461.59;5091731;28;20215;-79
2021/09/12 08:21:49;;;;;;;7.33;5.63;;;;;;;24.88;100.00;96463.63;5092169;28;20680;-79
2021/09/12 08:24:16;;;;;;;7.97;5.50;;;;;;;25.20;100.00;96454.19;5091258;28;20224;-79
2021/09/12 08:26:43;;;;;;;6.30;5.70;;;;;;;25.24;100.00;96456.13;5092445;28;20201;-79
2021/09/12 08:29:10;;;;;;;10.87;5.73;;;;;;;25.31;100.00;96467.53;5091498;28;20580;-79
2021/09/12 08:31:38;;;;;;;7.43;5.63;;;;;;;25.26;100.00;96464.78;5091980;28;20587;-79
2021/09/12 08:34:05;;;;;;;6.40;5.80;;;;;;;25.45;100.00;96459.09;5091574;28;20203;-79
2021/09/12 08:36:34;;;;;;;7.67;6.00;;;;;;;25.56;100.00;96463.56;5091798;28;20223;-78
2021/09/12 08:39:01;;;;;;;7.50;5.80;;;;;;;25.64;100.00;96463.16;5091631;28;20198;-78
2021/09/12 08:41:30;;;;;;;7.30;5.40;;;;;;;25.59;100.00;96455.81;5091220;28;20681;-78
2021/09/12 08:44:00;;;;;;;6.43;5.23;;;;;;;25.52;100.00;96462.44;5091764;28;20192;-78
2021/09/12 08:46:27;;;;;;;6.83;5.60;;;;;;;25.75;100.00;96459.50;5091983;28;20202;-79
2021/09/12 08:48:54;;;;;;;7.27;5.70;;;;;;;26.18;100.00;96449.00;5091530;28;20204;-79
2021/09/12 08:51:23;;;;;;;10.10;5.50;;;;;;;26.04;100.00;96452.06;5092000;28;20237;-79
2021/09/12 08:53:51;;;;;;;6.23;5.13;;;;;;;26.38;100.00;96446.50;5091713;28;20669;-79
2021/09/12 08:56:19;;;;;;;9.53;5.93;;;;;;;26.77;100.00;96449.03;5091702;28;20302;-79
2021/09/12 08:58:46;;;;;;;5.93;5.43;;;;;;;26.78;100.00;96438.00;5091585;28;20203;-79
2021/09/12 09:01:13;;;;;;;7.40;6.23;;;;;;;27.39;100.00;96436.81;5091514;28;20200;-79
2021/09/12 09:03:42;;;;;;;8.65;5.88;;;;;;;27.25;100.00;96437.28;5091203;28;20196;-79
2021/09/12 09:06:13;;;;;;;10.00;5.90;;;;;;;27.13;100.00;96431.28;5091577;28;20192;-79
2021/09/12 09:08:53;;;;;;;9.90;5.50;;;;;;;27.26;100.00;96438.09;5091268;28;20196;-81
2021/09/12 09:11:30;;;;;;;9.18;5.85;;;;;;;27.74;100.00;96441.59;5091763;28;20203;-79
2021/09/12 09:14:12;;;;;;;7.78;5.55;;;;;;;27.95;100.00;96434.41;5091640;28;20641;-80
2021/09/12 09:16:39;;;;;;;7.15;5.30;;;;;;;28.23;100.00;96432.31;5091574;28;20200;-80
2021/09/12 09:19:08;;;;;;;6.13;5.53;;;;;;;28.33;100.00;96426.94;5091187;28;20204;-80
2021/09/12 09:21:37;;;;;;;7.35;6.18;;;;;;;28.33;100.00;96429.63;5091430;28;20200;-79
2021/09/12 09:24:15;;;;;;;8.32;5.95;;;;;;;27.91;100.00;96423.31;5090679;28;20236;-80
2021/09/12 09:26:46;;;;;;;7.07;5.88;;;;;;;28.17;100.00;96421.50;5091688;28;20283;-80
2021/09/12 09:29:14;;;;;;;7.93;5.75;;;;;;;28.20;100.00;96415.56;5090879;28;20189;-79
2021/09/12 09:31:42;;;;;;;7.05;5.68;;;;;;;27.37;100.00;96414.69;5091154;28;20197;-80
2021/09/12 09:34:20;;;;;;;6.82;5.38;;;;;;;28.13;100.00;96415.03;5091007;28;20201;-79
2021/09/12 09:36:49;;;;;;;8.45;5.82;;;;;;;28.22;100.00;96415.28;5091152;28;20223;-80
2021/09/12 09:39:35;;;;;;;8.38;5.82;;;;;;;27.20;100.00;96414.88;5090846;28;20279;-79
2021/09/12 09:42:03;;;;;;;6.70;5.97;;;;;;;26.28;100.00;96411.38;5091357;28;20238;-81
2021/09/12 09:44:30;;;;;;;8.55;5.63;;;;;;;25.73;100.00;96417.75;5091108;28;20721;-80
2021/09/12 09:47:09;;;;;;;9.55;5.88;;;;;;;26.44;100.00;96413.16;5091402;28;20196;-81
2021/09/12 09:49:38;;;;;;;9.35;6.07;;;;;;;27.33;100.00;96405.47;5091070;28;20654;-80
2021/09/12 09:52:06;;;;;;;8.27;5.72;;;;;;;26.67;100.00;96408.50;5088981;28;20287;-81
2021/09/12 09:54:35;;;;;;;8.40;6.72;;;;;;;26.98;100.00;96404.16;5094825;28;20237;-81
2021/09/12 09:57:03;;;;;;;6.30;5.70;;;;;;;26.02;100.00;96404.94;5094571;28;20291;-81
2021/09/12 09:59:30;;;;;;;7.30;6.60;;;;;;;25.76;100.00;96404.59;5094516;28;20673;-81
2021/09/12 10:01:58;;;;;;;6.22;5.63;;;;;;;25.48;100.00;96407.50;5094687;28;20207;-81
2021/09/12 10:04:28;;;;;;;6.43;5.55;;;;;;;26.31;100.00;96406.28;5094734;28;20554;-81
2021/09/12 10:06:56;;;;;;;8.98;5.00;;;;;;;26.90;100.00;96410.84;5094436;28;20192;-81
2021/09/12 10:09:23;;;;;;;6.20;5.10;;;;;;;27.48;100.00;96411.78;5094715;28;20192;-81
2021/09/12 10:11:53;;;;;;;11.80;5.82;;;;;;;27.66;100.00;96407.00;5094334;28;20219;-81
2021/09/12 10:14:27;;;;;;;6.75;5.07;;;;;;;27.61;100.00;96405.09;5092181;28;20207;-81
2021/09/12 10:16:55;;;;;;;7.00;5.38;;;;;;;27.92;100.00;96403.34;5093664;28;20591;-81
2021/09/12 10:19:36;;;;;;;7.70;6.13;;;;;;;28.33;100.00;96405.31;5093214;28;20580;-81
2021/09/12 10:22:09;;;;;;;6.05;5.45;;;;;;;28.58;100.00;96404.56;5094640;28;20228;-81
2021/09/12 10:24:38;;;;;;;7.65;6.18;;;;;;;28.53;100.00;96397.25;5094117;28;20230;-81
2021/09/12 10:27:34;;;;;;;9.20;5.45;;;;;;;28.36;100.00;96394.78;5094193;28;20242;-81
2021/09/12 10:30:24;;;;;;;6.70;5.35;;;;;;;28.71;100.00;96400.50;5094104;28;20204;-81
2021/09/12 10:32:52;;;;;;;6.35;5.75;;;;;;;28.74;100.00;96397.25;5094303;28;20188;-81
2021/09/12 10:35:24;;;;;;;7.53;5.22;;;;;;;28.21;100.00;96398.28;5094508;28;20224;-81
2021/09/12 10:37:58;;;;;;;8.40;4.97;;;;;;;27.45;100.00;96388.00;5093950;28;20661;-82
2021/09/12 10:40:26;;;;;;;11.63;5.45;;;;;;;27.36;100.00;96391.47;5093991;28;20180;-81
2021/09/12 10:42:54;;;;;;;9.05;5.28;;;;;;;26.69;100.00;96385.63;5093849;28;20660;-81
2021/09/12 10:45:25;;;;;;;5.82;5.30;;;;;;;26.18;100.00;96385.16;5094375;28;20218;-81
2021/09/12 10:48:13;;;;;;;8.00;5.72;;;;;;;26.53;100.00;96389.25;5093829;28;20184;-81
2021/09/12 10:50:45;;;;;;;9.98;5.90;;;;;;;27.49;100.00;96383.69;5093866;28;20613;-81
2021/09/12 10:53:13;;;;;;;5.50;5.00;;;;;;;27.79;100.00;96381.44;5093481;28;20196;-82
2021/09/12 10:55:59;;;;;;;9.35;5.45;;;;;;;27.84;100.00;96386.84;5094081;28;20324;-81
2021/09/12 10:58:29;;;;;;;7.15;5.05;;;;;;;28.31;100.00;96385.88;5093212;28;20203;-81
2021/09/12 11:00:58;;;;;;;6.00;5.43;;;;;;;28.25;100.00;96373.41;5094038;28;20191;-81
2021/09/12 11:03:26;;;;;;;7.05;5.82;;;;;;;28.57;100.00;96381.28;5093468;28;20235;-81
2021/09/12 11:05:54;;;;;;;5.82;5.20;;;;;;;28.67;100.00;96379.41;5093291;28;20279;-81
2021/09/12 11:08:32;;;;;;;12.15;6.13;;;;;;;28.55;100.00;96383.47;5093462;28;20197;-81
2021/09/12 11:11:00;;;;;;;5.65;5.15;;;;;;;28.16;100.00;96382.06;5093643;28;20643;-81
2021/09/12 11:13:29;;;;;;;13.60;7.25;;;;;;;28.14;100.00;96372.59;5093470;28;20196;-81
2021/09/12 11:16:06;;;;;;;6.90;6.30;;;;;;;28.26;100.00;96375.03;5093662;28;20216;-81
2021/09/12 11:18:46;;;;;;;7.40;6.72;;;;;;;27.98;100.00;96371.75;5093520;28;20705;-81
2021/09/12 11:21:24;;;;;;;7.60;6.22;;;;;;;28.03;100.00;96379.88;5093343;28;20188;-81
2021/09/12 11:23:58;;;;;;;10.18;5.85;;;;;;;28.20;100.00;96361.53;5093004;28;20556;-81
2021/09/12 11:26:25;;;;;;;6.35;5.43;;;;;;;28.03;100.00;96379.88;5093274;28;20657;-81
2021/09/12 11:29:05;;;;;;;7.30;6.03;;;;;;;27.74;100.00;96365.97;5093264;28;20282;-81
2021/09/12 11:31:49;;;;;;;6.55;5.95;;;;;;;27.93;100.00;96363.63;5109887;27;20553;-83